»·PEaware :: UAL522 KSFO-KPDX

UAL522 :: KSFO-KPDX

FLIGHT INFORMATION

Flight Status: Arrived
Operator:
United Airlines
More flights by this operator :: More flights under this callsign
Pilot: Saso K. (7898)
Aircraft: AIRBUS A320
(A320)
More flights by this aircraft type
Origin: KSFO San Francisco Intl
United States
Destination: KPDX Portland Intl
United States
More flights between these airports :: More routes between these airports
Route: +TRUKN2 GRTFL MACHU TMBRS2
File this flight plan on PilotEdge
Remarks: EET / KZSE0034
Altitude:
(Current/Filed)
38,000ft
Speed:
(Current/Filed)
447kts
Departed: 23-Jun-17 05:01 PM
Arrived: 23-Jun-17 06:23 PM
Distance/Time
Traveled:
478nm/1:22
Distance/Time
To Go:
Arrived

Flight Plot

Page will automatically refresh every two minutes.


Map Options




Map Legend


Flown Route
Filed Route
Departure Airport
Arrival Airport
Navaid (VOR, NDB)
Fix

Horizontal Profiles

Position Reports

Time Latitude Longitude Heading Altitude Ground
Speed
23-Jun-17 16:32 37.619723 -122.388268 26 32ft 0kts
23-Jun-17 16:33 37.619723 -122.388268 26 32ft 0kts
23-Jun-17 16:34 37.619723 -122.388268 26 32ft 0kts
23-Jun-17 16:35 37.619723 -122.388268 26 32ft 0kts
23-Jun-17 16:36 37.619723 -122.388268 26 32ft 0kts
23-Jun-17 16:37 37.619723 -122.388268 26 32ft 0kts
23-Jun-17 16:38 37.619723 -122.388268 26 32ft 0kts
23-Jun-17 16:39 37.619723 -122.388268 26 32ft 0kts
23-Jun-17 16:40 37.619723 -122.388268 26 32ft 0kts
23-Jun-17 16:41 37.619723 -122.388268 26 32ft 0kts
23-Jun-17 16:42 37.619723 -122.388268 26 32ft 0kts
23-Jun-17 16:43 37.619723 -122.388268 26 32ft 0kts
23-Jun-17 16:44 37.619723 -122.388268 26 32ft 0kts
23-Jun-17 16:45 37.619723 -122.388268 26 32ft 0kts
23-Jun-17 16:46 37.619723 -122.388268 26 32ft 0kts
23-Jun-17 16:47 37.619723 -122.388268 26 32ft 0kts
23-Jun-17 16:48 37.619723 -122.388268 26 32ft 0kts
23-Jun-17 16:49 37.619723 -122.388268 26 32ft 0kts
23-Jun-17 16:50 37.619717 -122.388272 26 32ft 1kts
23-Jun-17 16:51 37.619200 -122.388592 26 32ft 2kts
23-Jun-17 16:52 37.618905 -122.388631 310 32ft 2kts
23-Jun-17 16:53 37.619790 -122.390692 298 32ft 0kts
23-Jun-17 16:54 37.619790 -122.390692 299 32ft 0kts
23-Jun-17 16:55 37.619791 -122.390693 299 32ft 0kts
23-Jun-17 16:56 37.619970 -122.391112 298 32ft 2kts
23-Jun-17 16:57 37.621032 -122.391851 27 32ft 10kts
23-Jun-17 16:58 37.622438 -122.388638 115 30ft 13kts
23-Jun-17 16:59 37.620214 -122.383344 116 32ft 19kts
23-Jun-17 17:00 37.616868 -122.379556 196 31ft 16kts
23-Jun-17 17:01 37.612765 -122.382202 207 32ft 18kts
23-Jun-17 17:02 37.609216 -122.384773 195 32ft 8kts
23-Jun-17 17:03 37.608083 -122.382912 98 31ft 1kts
23-Jun-17 17:04 37.614419 -122.378521 25 29ft 124kts
23-Jun-17 17:05 37.645250 -122.342533 47 2377ft 179kts
23-Jun-17 17:06 37.680804 -122.283691 50 4515ft 262kts
23-Jun-17 17:07 37.730614 -122.216546 8 7508ft 289kts
23-Jun-17 17:08 37.788527 -122.216456 357 9922ft 298kts
23-Jun-17 17:09 37.863651 -122.218588 358 11446ft 354kts
23-Jun-17 17:10 37.949089 -122.220835 358 13354ft 379kts
23-Jun-17 17:11 38.052242 -122.223573 358 15798ft 391kts
23-Jun-17 17:12 38.150550 -122.226195 358 17858ft 401kts
23-Jun-17 17:13 38.255031 -122.228993 358 19800ft 411kts
23-Jun-17 17:14 38.357451 -122.232210 355 21410ft 421kts
23-Jun-17 17:15 38.464895 -122.243298 354 22928ft 431kts
23-Jun-17 17:16 38.568896 -122.254115 354 24288ft 439kts
23-Jun-17 17:17 38.682356 -122.265956 354 25628ft 447kts
23-Jun-17 17:18 38.799918 -122.278265 354 26879ft 454kts
23-Jun-17 17:19 38.919851 -122.290863 354 28029ft 461kts
23-Jun-17 17:20 39.043757 -122.303898 354 29085ft 468kts
23-Jun-17 17:21 39.165104 -122.316758 354 30373ft 466kts
23-Jun-17 17:22 39.289960 -122.330016 354 31663ft 463kts
23-Jun-17 17:23 39.414321 -122.343265 354 32833ft 461kts
23-Jun-17 17:24 39.539225 -122.356623 354 33947ft 458kts
23-Jun-17 17:25 39.663128 -122.369919 354 34942ft 457kts
23-Jun-17 17:26 39.787069 -122.383266 354 35859ft 455kts
23-Jun-17 17:27 39.908891 -122.396432 354 36648ft 454kts
23-Jun-17 17:28 40.031889 -122.409774 354 37299ft 454kts
23-Jun-17 17:29 40.151533 -122.422801 354 37840ft 454kts
23-Jun-17 17:30 40.273703 -122.436149 354 37949ft 451kts
23-Jun-17 17:31 40.391885 -122.449106 354 37960ft 453kts
23-Jun-17 17:32 40.514717 -122.462624 354 37884ft 455kts
23-Jun-17 17:33 40.636589 -122.476080 354 37908ft 456kts
23-Jun-17 17:34 40.759561 -122.489710 354 37904ft 457kts
23-Jun-17 17:35 40.881492 -122.503276 354 37888ft 456kts
23-Jun-17 17:36 41.004502 -122.517012 354 37898ft 454kts
23-Jun-17 17:37 41.124024 -122.530407 353 38007ft 451kts
23-Jun-17 17:38 41.246185 -122.544158 353 38057ft 447kts
23-Jun-17 17:39 41.368155 -122.557931 353 38037ft 445kts
23-Jun-17 17:40 41.488944 -122.571621 353 38032ft 444kts
23-Jun-17 17:41 41.610202 -122.581245 355 38044ft 445kts
23-Jun-17 17:42 41.732162 -122.589200 355 38063ft 446kts
23-Jun-17 17:43 41.854506 -122.597200 355 38079ft 447kts
23-Jun-17 17:44 41.976734 -122.605224 355 38085ft 447kts
23-Jun-17 17:45 42.098616 -122.613257 355 38084ft 447kts
23-Jun-17 17:46 42.217361 -122.621136 355 38020ft 447kts
23-Jun-17 17:47 42.339453 -122.629286 355 37997ft 447kts
23-Jun-17 17:48 42.461137 -122.637438 355 37994ft 447kts
23-Jun-17 17:49 42.583256 -122.645648 355 37993ft 447kts
23-Jun-17 17:50 42.704322 -122.653320 354 37994ft 447kts
23-Jun-17 17:51 42.826434 -122.661430 353 37996ft 447kts
23-Jun-17 17:52 42.948651 -122.669746 353 38013ft 446kts
23-Jun-17 17:53 43.070583 -122.678073 352 38062ft 441kts
23-Jun-17 17:54 43.189642 -122.686238 351 38033ft 436kts
23-Jun-17 17:55 43.308758 -122.694445 351 37987ft 433kts
23-Jun-17 17:56 43.426774 -122.702601 351 37979ft 432kts
23-Jun-17 17:57 43.545616 -122.710802 351 38002ft 433kts
23-Jun-17 17:58 43.663687 -122.718977 351 36687ft 433kts
23-Jun-17 17:59 43.782802 -122.727268 352 34103ft 439kts
23-Jun-17 18:00 43.902765 -122.735647 352 31360ft 444kts
23-Jun-17 18:01 44.022250 -122.744020 353 28727ft 442kts
23-Jun-17 18:02 44.133811 -122.751764 355 26676ft 428kts
23-Jun-17 18:03 44.249024 -122.743196 1 24509ft 416kts
23-Jun-17 18:04 44.358771 -122.732380 1 22374ft 402kts
23-Jun-17 18:05 44.465865 -122.721781 2 20233ft 388kts
23-Jun-17 18:06 44.566901 -122.711735 2 19061ft 351kts
23-Jun-17 18:07 44.660296 -122.702390 3 17080ft 345kts
23-Jun-17 18:08 44.752465 -122.693113 3 15349ft 332kts
23-Jun-17 18:09 44.840353 -122.684258 3 13716ft 319kts
23-Jun-17 18:10 44.925838 -122.675644 3 12232ft 305kts
23-Jun-17 18:11 45.004652 -122.667667 3 11271ft 281kts
23-Jun-17 18:12 45.080392 -122.659967 3 9933ft 272kts
23-Jun-17 18:13 45.150909 -122.652777 3 8692ft 264kts
23-Jun-17 18:14 45.221781 -122.645523 3 7460ft 258kts
23-Jun-17 18:15 45.284998 -122.607146 36 6125ft 266kts
23-Jun-17 18:16 45.340885 -122.544768 36 4998ft 255kts
23-Jun-17 18:17 45.393268 -122.488378 36 4316ft 233kts
23-Jun-17 18:18 45.442211 -122.437627 35 3088ft 216kts
23-Jun-17 18:19 45.485393 -122.397109 9 3018ft 170kts
23-Jun-17 18:20 45.517638 -122.434779 341 3021ft 156kts
23-Jun-17 18:21 45.542056 -122.404474 108 2551ft 145kts
23-Jun-17 18:22 45.520440 -122.421401 304 2227ft 160kts
23-Jun-17 18:23 45.545882 -122.469867 300 1561ft 159kts
23-Jun-17 18:24 45.564091 -122.517070 302 873ft 142kts
23-Jun-17 18:25 45.581680 -122.561865 302 185ft 138kts
23-Jun-17 18:26 45.590286 -122.585972 270 25ft 11kts
23-Jun-17 18:27 45.590301 -122.589268 278 26ft 10kts
23-Jun-17 18:28 45.590277 -122.590864 209 26ft 4kts
23-Jun-17 18:29 45.590047 -122.591051 209 25ft 0kts
23-Jun-17 18:30 45.590047 -122.591051 209 25ft 0kts

Navigation Log

Ident Type
1. KSFO Airport
2. KPDX Airport